sensor_id;sensor_type;location;lat;lon;timestamp;P1;durP1;ratioP1;P2;durP2;ratioP2
9372;SDS011;10838;52.350;9.790;2023-10-13T00:01:44;33.70;;;19.50;;
9372;SDS011;10838;52.350;9.790;2023-10-13T00:04:12;34.43;;;20.50;;
9372;SDS011;10838;52.350;9.790;2023-10-13T00:06:40;33.60;;;18.60;;
9372;SDS011;10838;52.350;9.790;2023-10-13T00:09:09;27.13;;;18.33;;
9372;SDS011;10838;52.350;9.790;2023-10-13T00:11:40;28.10;;;19.00;;
9372;SDS011;10838;52.350;9.790;2023-10-13T00:14:09;29.17;;;18.50;;
9372;SDS011;10838;52.350;9.790;2023-10-13T00:16:38;25.07;;;18.70;;
9372;SDS011;10838;52.350;9.790;2023-10-13T00:19:05;26.33;;;17.33;;
9372;SDS011;10838;52.350;9.790;2023-10-13T00:21:35;29.63;;;18.17;;
9372;SDS011;10838;52.350;9.790;2023-10-13T00:24:03;25.80;;;16.93;;
9372;SDS011;10838;52.350;9.790;2023-10-13T00:26:37;27.67;;;18.30;;
9372;SDS011;10838;52.350;9.790;2023-10-13T00:29:08;23.70;;;16.67;;
9372;SDS011;10838;52.350;9.790;2023-10-13T00:31:40;22.77;;;17.33;;
9372;SDS011;10838;52.350;9.790;2023-10-13T00:34:08;23.50;;;17.63;;
9372;SDS011;10838;52.350;9.790;2023-10-13T00:36:37;25.50;;;17.73;;
9372;SDS011;10838;52.350;9.790;2023-10-13T00:39:13;25.13;;;16.90;;
9372;SDS011;10838;52.350;9.790;2023-10-13T00:41:41;27.53;;;18.07;;
9372;SDS011;10838;52.350;9.790;2023-10-13T00:44:18;21.90;;;16.30;;
9372;SDS011;10838;52.350;9.790;2023-10-13T00:46:51;27.67;;;17.90;;
9372;SDS011;10838;52.350;9.790;2023-10-13T00:49:21;27.77;;;17.50;;
9372;SDS011;10838;52.350;9.790;2023-10-13T00:51:47;26.70;;;18.23;;
9372;SDS011;10838;52.350;9.790;2023-10-13T00:54:17;33.03;;;18.53;;
9372;SDS011;10838;52.350;9.790;2023-10-13T00:56:43;26.17;;;17.50;;
9372;SDS011;10838;52.350;9.790;2023-10-13T00:59:14;29.43;;;17.87;;
9372;SDS011;10838;52.350;9.790;2023-10-13T01:01:40;25.57;;;18.33;;
9372;SDS011;10838;52.350;9.790;2023-10-13T01:04:09;33.73;;;18.40;;
9372;SDS011;10838;52.350;9.790;2023-10-13T01:06:37;30.27;;;18.43;;
9372;SDS011;10838;52.350;9.790;2023-10-13T01:09:05;30.30;;;18.20;;
9372;SDS011;10838;52.350;9.790;2023-10-13T01:11:40;25.13;;;17.10;;
9372;SDS011;10838;52.350;9.790;2023-10-13T01:14:09;28.97;;;17.73;;
9372;SDS011;10838;52.350;9.790;2023-10-13T01:16:36;29.90;;;18.13;;
9372;SDS011;10838;52.350;9.790;2023-10-13T01:19:05;27.60;;;17.73;;
9372;SDS011;10838;52.350;9.790;2023-10-13T01:21:31;25.13;;;17.87;;
9372;SDS011;10838;52.350;9.790;2023-10-13T01:24:00;26.67;;;18.47;;
9372;SDS011;10838;52.350;9.790;2023-10-13T01:26:26;25.70;;;18.00;;
9372;SDS011;10838;52.350;9.790;2023-10-13T01:28:56;26.47;;;16.67;;
9372;SDS011;10838;52.350;9.790;2023-10-13T01:31:23;25.13;;;16.53;;
9372;SDS011;10838;52.350;9.790;2023-10-13T01:33:54;27.53;;;17.37;;
9372;SDS011;10838;52.350;9.790;2023-10-13T01:36:23;24.20;;;16.07;;
9372;SDS011;10838;52.350;9.790;2023-10-13T01:38:50;27.17;;;17.67;;
9372;SDS011;10838;52.350;9.790;2023-10-13T01:41:18;29.13;;;18.63;;
9372;SDS011;10838;52.350;9.790;2023-10-13T01:43:45;29.87;;;19.20;;
9372;SDS011;10838;52.350;9.790;2023-10-13T01:46:13;31.03;;;18.97;;
9372;SDS011;10838;52.350;9.790;2023-10-13T01:48:40;34.43;;;19.37;;
9372;SDS011;10838;52.350;9.790;2023-10-13T01:51:08;28.80;;;19.33;;
9372;SDS011;10838;52.350;9.790;2023-10-13T01:53:35;34.00;;;21.20;;
9372;SDS011;10838;52.350;9.790;2023-10-13T01:56:03;28.40;;;19.07;;
9372;SDS011;10838;52.350;9.790;2023-10-13T01:58:32;30.47;;;19.13;;
9372;SDS011;10838;52.350;9.790;2023-10-13T02:00:59;27.93;;;17.97;;
9372;SDS011;10838;52.350;9.790;2023-10-13T02:03:25;25.10;;;18.83;;
9372;SDS011;10838;52.350;9.790;2023-10-13T02:05:54;27.80;;;18.93;;
9372;SDS011;10838;52.350;9.790;2023-10-13T02:08:29;25.93;;;17.93;;
9372;SDS011;10838;52.350;9.790;2023-10-13T02:10:56;31.00;;;18.90;;
9372;SDS011;10838;52.350;9.790;2023-10-13T02:13:23;29.93;;;19.87;;
9372;SDS011;10838;52.350;9.790;2023-10-13T02:15:54;33.77;;;20.13;;
9372;SDS011;10838;52.350;9.790;2023-10-13T02:18:21;35.17;;;22.30;;
9372;SDS011;10838;52.350;9.790;2023-10-13T02:20:52;25.83;;;21.27;;
9372;SDS011;10838;52.350;9.790;2023-10-13T02:23:20;33.03;;;22.33;;
9372;SDS011;10838;52.350;9.790;2023-10-13T02:25:47;29.00;;;20.37;;
9372;SDS011;10838;52.350;9.790;2023-10-13T02:28:17;26.53;;;19.83;;
9372;SDS011;10838;52.350;9.790;2023-10-13T02:30:54;24.40;;;20.07;;
9372;SDS011;10838;52.350;9.790;2023-10-13T02:33:22;27.43;;;18.40;;
9372;SDS011;10838;52.350;9.790;2023-10-13T02:35:54;28.20;;;19.80;;
9372;SDS011;10838;52.350;9.790;2023-10-13T02:38:20;24.43;;;19.97;;
9372;SDS011;10838;52.350;9.790;2023-10-13T02:40:56;26.47;;;21.17;;
9372;SDS011;10838;52.350;9.790;2023-10-13T02:43:22;26.43;;;19.07;;
9372;SDS011;10838;52.350;9.790;2023-10-13T02:45:52;26.47;;;19.53;;
9372;SDS011;10838;52.350;9.790;2023-10-13T02:48:24;27.63;;;22.47;;
9372;SDS011;10838;52.350;9.790;2023-10-13T02:50:55;31.23;;;23.10;;
9372;SDS011;10838;52.350;9.790;2023-10-13T02:53:22;30.00;;;23.80;;
9372;SDS011;10838;52.350;9.790;2023-10-13T02:55:53;27.67;;;22.77;;
9372;SDS011;10838;52.350;9.790;2023-10-13T02:58:20;31.30;;;23.33;;
9372;SDS011;10838;52.350;9.790;2023-10-13T03:00:47;30.90;;;23.03;;
9372;SDS011;10838;52.350;9.790;2023-10-13T03:03:13;33.60;;;23.43;;
9372;SDS011;10838;52.350;9.790;2023-10-13T03:05:44;33.53;;;23.90;;
9372;SDS011;10838;52.350;9.790;2023-10-13T03:08:10;29.83;;;23.37;;
9372;SDS011;10838;52.350;9.790;2023-10-13T03:10:50;31.17;;;23.23;;
9372;SDS011;10838;52.350;9.790;2023-10-13T03:13:19;31.17;;;23.87;;
9372;SDS011;10838;52.350;9.790;2023-10-13T03:15:45;33.07;;;23.50;;
9372;SDS011;10838;52.350;9.790;2023-10-13T03:18:12;34.47;;;23.90;;
9372;SDS011;10838;52.350;9.790;2023-10-13T03:20:44;32.33;;;23.67;;
9372;SDS011;10838;52.350;9.790;2023-10-13T03:23:15;35.13;;;22.80;;
9372;SDS011;10838;52.350;9.790;2023-10-13T03:25:41;34.17;;;23.00;;
9372;SDS011;10838;52.350;9.790;2023-10-13T03:28:08;30.57;;;23.07;;
9372;SDS011;10838;52.350;9.790;2023-10-13T03:30:38;27.07;;;20.60;;
9372;SDS011;10838;52.350;9.790;2023-10-13T03:33:07;27.20;;;21.63;;
9372;SDS011;10838;52.350;9.790;2023-10-13T03:35:36;34.57;;;20.73;;
9372;SDS011;10838;52.350;9.790;2023-10-13T03:38:07;23.23;;;18.90;;
9372;SDS011;10838;52.350;9.790;2023-10-13T03:40:42;24.80;;;19.00;;
9372;SDS011;10838;52.350;9.790;2023-10-13T03:43:13;21.93;;;18.33;;
9372;SDS011;10838;52.350;9.790;2023-10-13T03:45:46;24.07;;;16.83;;
9372;SDS011;10838;52.350;9.790;2023-10-13T03:48:17;24.47;;;16.23;;
9372;SDS011;10838;52.350;9.790;2023-10-13T03:50:53;22.50;;;16.07;;
9372;SDS011;10838;52.350;9.790;2023-10-13T03:53:29;22.43;;;14.97;;
9372;SDS011;10838;52.350;9.790;2023-10-13T03:55:59;17.73;;;15.07;;
9372;SDS011;10838;52.350;9.790;2023-10-13T03:58:37;18.17;;;13.37;;
9372;SDS011;10838;52.350;9.790;2023-10-13T04:01:07;14.97;;;13.37;;
9372;SDS011;10838;52.350;9.790;2023-10-13T04:03:37;21.20;;;13.53;;
9372;SDS011;10838;52.350;9.790;2023-10-13T04:06:04;15.17;;;13.53;;
9372;SDS011;10838;52.350;9.790;2023-10-13T04:08:34;16.87;;;13.43;;
9372;SDS011;10838;52.350;9.790;2023-10-13T04:11:33;16.47;;;14.10;;
9372;SDS011;10838;52.350;9.790;2023-10-13T04:14:24;15.50;;;13.80;;
9372;SDS011;10838;52.350;9.790;2023-10-13T04:17:11;19.23;;;13.43;;
9372;SDS011;10838;52.350;9.790;2023-10-13T04:19:39;18.80;;;13.60;;
9372;SDS011;10838;52.350;9.790;2023-10-13T04:22:26;17.60;;;13.47;;
9372;SDS011;10838;52.350;9.790;2023-10-13T04:25:15;20.80;;;13.90;;
9372;SDS011;10838;52.350;9.790;2023-10-13T04:28:00;18.83;;;13.87;;
9372;SDS011;10838;52.350;9.790;2023-10-13T04:30:59;17.13;;;14.53;;
9372;SDS011;10838;52.350;9.790;2023-10-13T04:33:32;17.17;;;13.13;;
9372;SDS011;10838;52.350;9.790;2023-10-13T04:36:09;16.70;;;13.37;;
9372;SDS011;10838;52.350;9.790;2023-10-13T04:38:39;17.43;;;14.10;;
9372;SDS011;10838;52.350;9.790;2023-10-13T04:41:23;15.13;;;13.20;;
9372;SDS011;10838;52.350;9.790;2023-10-13T04:43:49;17.83;;;13.73;;
9372;SDS011;10838;52.350;9.790;2023-10-13T04:46:22;15.73;;;13.67;;
9372;SDS011;10838;52.350;9.790;2023-10-13T04:49:00;22.17;;;14.03;;
9372;SDS011;10838;52.350;9.790;2023-10-13T04:51:35;16.90;;;13.27;;
9372;SDS011;10838;52.350;9.790;2023-10-13T04:54:16;17.53;;;14.07;;
9372;SDS011;10838;52.350;9.790;2023-10-13T04:56:59;18.07;;;14.03;;
9372;SDS011;10838;52.350;9.790;2023-10-13T04:59:47;15.73;;;13.80;;
9372;SDS011;10838;52.350;9.790;2023-10-13T05:02:37;19.13;;;14.00;;
9372;SDS011;10838;52.350;9.790;2023-10-13T05:05:42;17.33;;;13.63;;
9372;SDS011;10838;52.350;9.790;2023-10-13T05:08:34;22.27;;;14.07;;
9372;SDS011;10838;52.350;9.790;2023-10-13T05:11:18;16.77;;;13.80;;
9372;SDS011;10838;52.350;9.790;2023-10-13T05:14:03;16.43;;;14.13;;
9372;SDS011;10838;52.350;9.790;2023-10-13T05:16:47;20.93;;;14.53;;
9372;SDS011;10838;52.350;9.790;2023-10-13T05:19:31;20.27;;;15.03;;
9372;SDS011;10838;52.350;9.790;2023-10-13T05:22:16;19.37;;;14.57;;
9372;SDS011;10838;52.350;9.790;2023-10-13T05:24:59;16.43;;;14.07;;
9372;SDS011;10838;52.350;9.790;2023-10-13T05:27:43;19.67;;;14.73;;
9372;SDS011;10838;52.350;9.790;2023-10-13T05:30:29;19.27;;;13.97;;
9372;SDS011;10838;52.350;9.790;2023-10-13T05:33:21;15.87;;;12.40;;
9372;SDS011;10838;52.350;9.790;2023-10-13T05:36:09;17.63;;;14.17;;
9372;SDS011;10838;52.350;9.790;2023-10-13T05:38:56;17.50;;;13.27;;
9372;SDS011;10838;52.350;9.790;2023-10-13T05:41:41;15.93;;;13.13;;
9372;SDS011;10838;52.350;9.790;2023-10-13T05:44:25;17.83;;;12.80;;
9372;SDS011;10838;52.350;9.790;2023-10-13T05:47:13;17.07;;;13.73;;
9372;SDS011;10838;52.350;9.790;2023-10-13T05:50:11;13.87;;;12.40;;
9372;SDS011;10838;52.350;9.790;2023-10-13T05:52:54;15.53;;;12.40;;
9372;SDS011;10838;52.350;9.790;2023-10-13T05:55:38;17.57;;;12.53;;
9372;SDS011;10838;52.350;9.790;2023-10-13T05:58:22;20.27;;;12.47;;
9372;SDS011;10838;52.350;9.790;2023-10-13T06:01:11;15.20;;;12.23;;
9372;SDS011;10838;52.350;9.790;2023-10-13T06:03:57;15.67;;;11.77;;
9372;SDS011;10838;52.350;9.790;2023-10-13T06:06:41;19.60;;;11.73;;
9372;SDS011;10838;52.350;9.790;2023-10-13T06:09:25;16.57;;;11.30;;
9372;SDS011;10838;52.350;9.790;2023-10-13T06:12:20;13.07;;;10.83;;
9372;SDS011;10838;52.350;9.790;2023-10-13T06:15:04;11.63;;;10.43;;
9372;SDS011;10838;52.350;9.790;2023-10-13T06:17:49;18.73;;;11.17;;
9372;SDS011;10838;52.350;9.790;2023-10-13T06:20:39;13.43;;;10.97;;
9372;SDS011;10838;52.350;9.790;2023-10-13T06:23:23;14.60;;;11.70;;
9372;SDS011;10838;52.350;9.790;2023-10-13T06:26:07;15.67;;;11.47;;
9372;SDS011;10838;52.350;9.790;2023-10-13T06:28:51;13.17;;;10.40;;
9372;SDS011;10838;52.350;9.790;2023-10-13T06:31:18;12.77;;;11.43;;
9372;SDS011;10838;52.350;9.790;2023-10-13T06:33:47;16.97;;;12.30;;
9372;SDS011;10838;52.350;9.790;2023-10-13T06:36:16;17.30;;;11.50;;
9372;SDS011;10838;52.350;9.790;2023-10-13T06:38:42;12.80;;;11.20;;
9372;SDS011;10838;52.350;9.790;2023-10-13T06:41:09;12.10;;;10.20;;
9372;SDS011;10838;52.350;9.790;2023-10-13T06:43:44;16.90;;;10.83;;
9372;SDS011;10838;52.350;9.790;2023-10-13T06:46:24;11.40;;;10.20;;
9372;SDS011;10838;52.350;9.790;2023-10-13T06:48:53;13.03;;;10.17;;
9372;SDS011;10838;52.350;9.790;2023-10-13T06:51:21;16.73;;;10.77;;
9372;SDS011;10838;52.350;9.790;2023-10-13T06:53:50;12.57;;;10.40;;
9372;SDS011;10838;52.350;9.790;2023-10-13T06:56:21;16.33;;;10.40;;
9372;SDS011;10838;52.350;9.790;2023-10-13T06:58:52;12.53;;;9.53;;
9372;SDS011;10838;52.350;9.790;2023-10-13T07:01:24;17.87;;;10.80;;
9372;SDS011;10838;52.350;9.790;2023-10-13T07:03:51;15.37;;;10.27;;
9372;SDS011;10838;52.350;9.790;2023-10-13T07:06:18;14.73;;;11.00;;
9372;SDS011;10838;52.350;9.790;2023-10-13T07:08:47;15.73;;;10.67;;
9372;SDS011;10838;52.350;9.790;2023-10-13T07:11:17;11.93;;;10.13;;
9372;SDS011;10838;52.350;9.790;2023-10-13T07:13:56;14.73;;;9.93;;
9372;SDS011;10838;52.350;9.790;2023-10-13T07:16:23;13.30;;;9.43;;
9372;SDS011;10838;52.350;9.790;2023-10-13T07:19:00;13.57;;;10.30;;
9372;SDS011;10838;52.350;9.790;2023-10-13T07:21:30;17.47;;;10.50;;
9372;SDS011;10838;52.350;9.790;2023-10-13T07:23:58;13.37;;;10.37;;
9372;SDS011;10838;52.350;9.790;2023-10-13T07:26:33;14.10;;;11.07;;
9372;SDS011;10838;52.350;9.790;2023-10-13T07:29:07;16.27;;;10.03;;
9372;SDS011;10838;52.350;9.790;2023-10-13T07:31:34;11.70;;;10.50;;
9372;SDS011;10838;52.350;9.790;2023-10-13T07:34:02;16.43;;;10.67;;
9372;SDS011;10838;52.350;9.790;2023-10-13T07:36:37;16.37;;;10.20;;
9372;SDS011;10838;52.350;9.790;2023-10-13T07:39:07;14.63;;;11.03;;
9372;SDS011;10838;52.350;9.790;2023-10-13T07:41:46;16.83;;;10.97;;
9372;SDS011;10838;52.350;9.790;2023-10-13T07:44:17;14.47;;;10.60;;
9372;SDS011;10838;52.350;9.790;2023-10-13T07:46:46;14.43;;;10.63;;
9372;SDS011;10838;52.350;9.790;2023-10-13T07:49:23;15.47;;;10.53;;
9372;SDS011;10838;52.350;9.790;2023-10-13T07:51:50;14.67;;;11.03;;
9372;SDS011;10838;52.350;9.790;2023-10-13T07:54:23;19.37;;;11.60;;
9372;SDS011;10838;52.350;9.790;2023-10-13T07:56:50;14.63;;;10.63;;
9372;SDS011;10838;52.350;9.790;2023-10-13T07:59:16;16.77;;;10.80;;
9372;SDS011;10838;52.350;9.790;2023-10-13T08:01:47;18.20;;;11.33;;
9372;SDS011;10838;52.350;9.790;2023-10-13T08:04:34;17.47;;;10.37;;
9372;SDS011;10838;52.350;9.790;2023-10-13T08:07:02;16.97;;;10.80;;
9372;SDS011;10838;52.350;9.790;2023-10-13T08:09:39;14.67;;;9.70;;
9372;SDS011;10838;52.350;9.790;2023-10-13T08:12:06;14.63;;;10.00;;
9372;SDS011;10838;52.350;9.790;2023-10-13T08:14:37;10.30;;;8.73;;
9372;SDS011;10838;52.350;9.790;2023-10-13T08:17:06;14.70;;;8.73;;
9372;SDS011;10838;52.350;9.790;2023-10-13T08:19:34;10.40;;;7.50;;
9372;SDS011;10838;52.350;9.790;2023-10-13T08:22:07;10.03;;;8.03;;
9372;SDS011;10838;52.350;9.790;2023-10-13T08:24:51;10.90;;;7.03;;
9372;SDS011;10838;52.350;9.790;2023-10-13T08:27:40;7.73;;;6.93;;
9372;SDS011;10838;52.350;9.790;2023-10-13T08:30:15;10.53;;;7.70;;
9372;SDS011;10838;52.350;9.790;2023-10-13T08:32:55;11.80;;;6.97;;
9372;SDS011;10838;52.350;9.790;2023-10-13T08:35:24;8.67;;;6.93;;
9372;SDS011;10838;52.350;9.790;2023-10-13T08:38:00;7.17;;;6.47;;
9372;SDS011;10838;52.350;9.790;2023-10-13T08:40:39;10.60;;;6.40;;
9372;SDS011;10838;52.350;9.790;2023-10-13T08:43:41;11.90;;;6.30;;
9372;SDS011;10838;52.350;9.790;2023-10-13T08:46:10;7.43;;;5.87;;
9372;SDS011;10838;52.350;9.790;2023-10-13T08:48:53;7.70;;;5.60;;
9372;SDS011;10838;52.350;9.790;2023-10-13T08:51:30;8.60;;;5.50;;
9372;SDS011;10838;52.350;9.790;2023-10-13T08:54:10;7.53;;;6.17;;
9372;SDS011;10838;52.350;9.790;2023-10-13T08:56:46;6.30;;;5.67;;
9372;SDS011;10838;52.350;9.790;2023-10-13T08:59:21;7.63;;;5.57;;
9372;SDS011;10838;52.350;9.790;2023-10-13T09:01:48;6.17;;;5.17;;
9372;SDS011;10838;52.350;9.790;2023-10-13T09:04:24;7.23;;;5.40;;
9372;SDS011;10838;52.350;9.790;2023-10-13T09:06:53;5.80;;;5.20;;
9372;SDS011;10838;52.350;9.790;2023-10-13T09:09:33;6.07;;;4.53;;
9372;SDS011;10838;52.350;9.790;2023-10-13T09:12:01;9.03;;;5.20;;
9372;SDS011;10838;52.350;9.790;2023-10-13T09:14:34;6.33;;;5.00;;
9372;SDS011;10838;52.350;9.790;2023-10-13T09:17:03;8.10;;;5.13;;
9372;SDS011;10838;52.350;9.790;2023-10-13T09:19:47;5.60;;;4.53;;
9372;SDS011;10838;52.350;9.790;2023-10-13T09:22:20;6.33;;;5.07;;
9372;SDS011;10838;52.350;9.790;2023-10-13T09:25:00;5.60;;;5.20;;
9372;SDS011;10838;52.350;9.790;2023-10-13T09:27:29;6.67;;;4.90;;
9372;SDS011;10838;52.350;9.790;2023-10-13T09:29:59;7.77;;;4.93;;
9372;SDS011;10838;52.350;9.790;2023-10-13T09:32:43;6.87;;;4.60;;
9372;SDS011;10838;52.350;9.790;2023-10-13T09:35:16;4.97;;;4.30;;
9372;SDS011;10838;52.350;9.790;2023-10-13T09:37:44;6.43;;;4.83;;
9372;SDS011;10838;52.350;9.790;2023-10-13T09:40:13;5.47;;;4.30;;
9372;SDS011;10838;52.350;9.790;2023-10-13T09:42:56;7.83;;;4.60;;
9372;SDS011;10838;52.350;9.790;2023-10-13T09:45:31;4.37;;;3.90;;
9372;SDS011;10838;52.350;9.790;2023-10-13T09:48:01;5.40;;;4.27;;
9372;SDS011;10838;52.350;9.790;2023-10-13T09:50:31;5.63;;;4.00;;
9372;SDS011;10838;52.350;9.790;2023-10-13T09:53:06;6.60;;;4.60;;
9372;SDS011;10838;52.350;9.790;2023-10-13T09:55:35;6.60;;;4.00;;
9372;SDS011;10838;52.350;9.790;2023-10-13T09:58:11;4.57;;;3.80;;
9372;SDS011;10838;52.350;9.790;2023-10-13T10:00:42;5.37;;;4.57;;
9372;SDS011;10838;52.350;9.790;2023-10-13T10:03:13;5.03;;;4.30;;
9372;SDS011;10838;52.350;9.790;2023-10-13T10:05:58;8.60;;;4.20;;
9372;SDS011;10838;52.350;9.790;2023-10-13T10:08:30;7.37;;;4.10;;
9372;SDS011;10838;52.350;9.790;2023-10-13T10:11:00;6.07;;;4.20;;
9372;SDS011;10838;52.350;9.790;2023-10-13T10:13:38;6.97;;;4.43;;
9372;SDS011;10838;52.350;9.790;2023-10-13T10:16:12;6.10;;;4.60;;
9372;SDS011;10838;52.350;9.790;2023-10-13T10:18:44;10.00;;;4.63;;
9372;SDS011;10838;52.350;9.790;2023-10-13T10:21:11;5.57;;;4.23;;
9372;SDS011;10838;52.350;9.790;2023-10-13T10:23:40;9.67;;;4.43;;
9372;SDS011;10838;52.350;9.790;2023-10-13T10:26:09;11.17;;;4.50;;
9372;SDS011;10838;52.350;9.790;2023-10-13T10:28:40;5.07;;;4.20;;
9372;SDS011;10838;52.350;9.790;2023-10-13T10:31:08;8.23;;;4.50;;
9372;SDS011;10838;52.350;9.790;2023-10-13T10:33:40;13.80;;;4.73;;
9372;SDS011;10838;52.350;9.790;2023-10-13T10:36:08;7.10;;;4.40;;
9372;SDS011;10838;52.350;9.790;2023-10-13T10:38:51;9.30;;;4.60;;
9372;SDS011;10838;52.350;9.790;2023-10-13T10:41:25;9.30;;;4.80;;
9372;SDS011;10838;52.350;9.790;2023-10-13T10:44:11;8.77;;;4.83;;
9372;SDS011;10838;52.350;9.790;2023-10-13T10:46:43;9.10;;;4.63;;
9372;SDS011;10838;52.350;9.790;2023-10-13T10:49:22;15.60;;;4.77;;
9372;SDS011;10838;52.350;9.790;2023-10-13T10:51:55;9.40;;;4.63;;
9372;SDS011;10838;52.350;9.790;2023-10-13T10:54:26;12.37;;;4.87;;
9372;SDS011;10838;52.350;9.790;2023-10-13T10:56:56;8.27;;;4.77;;
9372;SDS011;10838;52.350;9.790;2023-10-13T10:59:37;15.80;;;4.83;;
9372;SDS011;10838;52.350;9.790;2023-10-13T11:02:04;6.97;;;4.70;;
9372;SDS011;10838;52.350;9.790;2023-10-13T11:04:32;10.43;;;5.03;;
9372;SDS011;10838;52.350;9.790;2023-10-13T11:07:00;8.40;;;4.40;;
9372;SDS011;10838;52.350;9.790;2023-10-13T11:09:28;11.87;;;4.80;;
9372;SDS011;10838;52.350;9.790;2023-10-13T11:12:12;10.17;;;4.83;;
9372;SDS011;10838;52.350;9.790;2023-10-13T11:14:59;14.57;;;5.33;;
9372;SDS011;10838;52.350;9.790;2023-10-13T11:17:27;9.90;;;5.00;;
9372;SDS011;10838;52.350;9.790;2023-10-13T11:20:10;11.47;;;4.90;;
9372;SDS011;10838;52.350;9.790;2023-10-13T11:22:41;9.63;;;5.00;;
9372;SDS011;10838;52.350;9.790;2023-10-13T11:25:19;14.37;;;5.17;;
9372;SDS011;10838;52.350;9.790;2023-10-13T11:27:47;13.50;;;5.10;;
9372;SDS011;10838;52.350;9.790;2023-10-13T11:30:26;10.50;;;5.50;;
9372;SDS011;10838;52.350;9.790;2023-10-13T11:33:06;13.43;;;5.13;;
9372;SDS011;10838;52.350;9.790;2023-10-13T11:35:34;12.97;;;5.60;;
9372;SDS011;10838;52.350;9.790;2023-10-13T11:38:19;10.50;;;5.37;;
9372;SDS011;10838;52.350;9.790;2023-10-13T11:40:51;9.67;;;5.47;;
9372;SDS011;10838;52.350;9.790;2023-10-13T11:43:37;8.77;;;4.90;;
9372;SDS011;10838;52.350;9.790;2023-10-13T11:46:19;12.73;;;5.40;;
9372;SDS011;10838;52.350;9.790;2023-10-13T11:49:01;9.00;;;4.80;;
9372;SDS011;10838;52.350;9.790;2023-10-13T11:51:33;16.77;;;5.87;;
9372;SDS011;10838;52.350;9.790;2023-10-13T11:54:03;8.50;;;5.23;;
9372;SDS011;10838;52.350;9.790;2023-10-13T11:56:30;10.60;;;5.37;;
9372;SDS011;10838;52.350;9.790;2023-10-13T11:58:56;9.90;;;5.30;;
9372;SDS011;10838;52.350;9.790;2023-10-13T12:01:27;14.20;;;6.63;;
9372;SDS011;10838;52.350;9.790;2023-10-13T12:04:08;12.07;;;5.57;;
9372;SDS011;10838;52.350;9.790;2023-10-13T12:06:52;11.63;;;5.87;;
9372;SDS011;10838;52.350;9.790;2023-10-13T12:09:39;9.60;;;5.37;;
9372;SDS011;10838;52.350;9.790;2023-10-13T12:12:17;12.47;;;5.60;;
9372;SDS011;10838;52.350;9.790;2023-10-13T12:14:43;11.80;;;5.90;;
9372;SDS011;10838;52.350;9.790;2023-10-13T12:17:21;16.17;;;5.40;;
9372;SDS011;10838;52.350;9.790;2023-10-13T12:19:52;13.97;;;5.53;;
9372;SDS011;10838;52.350;9.790;2023-10-13T12:22:19;13.27;;;6.13;;
9372;SDS011;10838;52.350;9.790;2023-10-13T12:24:53;12.07;;;5.53;;
9372;SDS011;10838;52.350;9.790;2023-10-13T12:27:20;10.27;;;5.10;;
9372;SDS011;10838;52.350;9.790;2023-10-13T12:29:52;14.33;;;5.63;;
9372;SDS011;10838;52.350;9.790;2023-10-13T12:32:22;20.13;;;5.80;;
9372;SDS011;10838;52.350;9.790;2023-10-13T12:34:50;10.97;;;5.13;;
9372;SDS011;10838;52.350;9.790;2023-10-13T12:37:25;12.77;;;5.40;;
9372;SDS011;10838;52.350;9.790;2023-10-13T12:40:15;13.67;;;6.53;;
9372;SDS011;10838;52.350;9.790;2023-10-13T12:43:00;14.27;;;5.50;;
9372;SDS011;10838;52.350;9.790;2023-10-13T12:45:45;13.67;;;5.43;;
9372;SDS011;10838;52.350;9.790;2023-10-13T12:48:32;17.10;;;5.60;;
9372;SDS011;10838;52.350;9.790;2023-10-13T12:51:18;13.87;;;5.80;;
9372;SDS011;10838;52.350;9.790;2023-10-13T12:54:05;12.43;;;5.77;;
9372;SDS011;10838;52.350;9.790;2023-10-13T12:56:40;19.50;;;5.97;;
9372;SDS011;10838;52.350;9.790;2023-10-13T12:59:07;12.27;;;5.80;;
9372;SDS011;10838;52.350;9.790;2023-10-13T13:01:38;13.67;;;5.60;;
9372;SDS011;10838;52.350;9.790;2023-10-13T13:04:08;11.33;;;5.20;;
9372;SDS011;10838;52.350;9.790;2023-10-13T13:06:43;12.60;;;5.97;;
9372;SDS011;10838;52.350;9.790;2023-10-13T13:09:10;11.23;;;5.77;;
9372;SDS011;10838;52.350;9.790;2023-10-13T13:11:37;18.70;;;6.00;;
9372;SDS011;10838;52.350;9.790;2023-10-13T13:14:04;15.50;;;5.60;;
9372;SDS011;10838;52.350;9.790;2023-10-13T13:16:33;16.00;;;5.67;;
9372;SDS011;10838;52.350;9.790;2023-10-13T13:19:00;12.97;;;5.30;;
9372;SDS011;10838;52.350;9.790;2023-10-13T13:21:36;19.27;;;5.40;;
9372;SDS011;10838;52.350;9.790;2023-10-13T13:24:03;20.67;;;5.70;;
9372;SDS011;10838;52.350;9.790;2023-10-13T13:26:35;15.77;;;6.10;;
9372;SDS011;10838;52.350;9.790;2023-10-13T13:29:05;14.33;;;5.53;;
9372;SDS011;10838;52.350;9.790;2023-10-13T13:31:34;16.80;;;6.10;;
9372;SDS011;10838;52.350;9.790;2023-10-13T13:34:06;15.37;;;5.80;;
9372;SDS011;10838;52.350;9.790;2023-10-13T13:36:35;18.23;;;6.20;;
9372;SDS011;10838;52.350;9.790;2023-10-13T13:39:02;14.47;;;5.80;;
9372;SDS011;10838;52.350;9.790;2023-10-13T13:41:30;16.17;;;6.00;;
9372;SDS011;10838;52.350;9.790;2023-10-13T13:43:58;13.30;;;5.47;;
9372;SDS011;10838;52.350;9.790;2023-10-13T13:46:38;16.67;;;5.87;;
9372;SDS011;10838;52.350;9.790;2023-10-13T13:49:07;14.80;;;5.63;;
9372;SDS011;10838;52.350;9.790;2023-10-13T13:51:44;11.67;;;5.33;;
9372;SDS011;10838;52.350;9.790;2023-10-13T13:54:16;17.33;;;5.47;;
9372;SDS011;10838;52.350;9.790;2023-10-13T13:56:44;15.83;;;5.57;;
9372;SDS011;10838;52.350;9.790;2023-10-13T13:59:10;15.87;;;6.37;;
9372;SDS011;10838;52.350;9.790;2023-10-13T14:01:41;16.57;;;6.10;;
9372;SDS011;10838;52.350;9.790;2023-10-13T14:04:09;26.00;;;6.57;;
9372;SDS011;10838;52.350;9.790;2023-10-13T14:06:36;17.53;;;5.70;;
9372;SDS011;10838;52.350;9.790;2023-10-13T14:09:05;20.83;;;6.40;;
9372;SDS011;10838;52.350;9.790;2023-10-13T14:11:39;12.33;;;5.53;;
9372;SDS011;10838;52.350;9.790;2023-10-13T14:14:23;18.27;;;6.43;;
9372;SDS011;10838;52.350;9.790;2023-10-13T14:16:56;15.73;;;6.50;;
9372;SDS011;10838;52.350;9.790;2023-10-13T14:19:28;16.93;;;5.80;;
9372;SDS011;10838;52.350;9.790;2023-10-13T14:21:55;16.03;;;5.57;;
9372;SDS011;10838;52.350;9.790;2023-10-13T14:24:24;14.37;;;6.07;;
9372;SDS011;10838;52.350;9.790;2023-10-13T14:26:53;16.73;;;5.93;;
9372;SDS011;10838;52.350;9.790;2023-10-13T14:29:19;12.53;;;5.57;;
9372;SDS011;10838;52.350;9.790;2023-10-13T14:31:46;13.17;;;5.60;;
9372;SDS011;10838;52.350;9.790;2023-10-13T14:34:14;13.47;;;5.70;;
9372;SDS011;10838;52.350;9.790;2023-10-13T14:36:40;11.90;;;5.97;;
9372;SDS011;10838;52.350;9.790;2023-10-13T14:39:13;10.63;;;6.10;;
9372;SDS011;10838;52.350;9.790;2023-10-13T14:41:41;13.27;;;5.87;;
9372;SDS011;10838;52.350;9.790;2023-10-13T14:44:08;9.80;;;6.10;;
9372;SDS011;10838;52.350;9.790;2023-10-13T14:46:37;12.37;;;5.97;;
9372;SDS011;10838;52.350;9.790;2023-10-13T14:49:04;17.53;;;5.97;;
9372;SDS011;10838;52.350;9.790;2023-10-13T14:51:31;16.17;;;6.20;;
9372;SDS011;10838;52.350;9.790;2023-10-13T14:53:58;11.30;;;6.10;;
9372;SDS011;10838;52.350;9.790;2023-10-13T14:56:25;13.43;;;5.47;;
9372;SDS011;10838;52.350;9.790;2023-10-13T14:58:54;12.83;;;5.50;;
9372;SDS011;10838;52.350;9.790;2023-10-13T15:01:21;12.33;;;5.57;;
9372;SDS011;10838;52.350;9.790;2023-10-13T15:03:50;9.30;;;5.30;;
9372;SDS011;10838;52.350;9.790;2023-10-13T15:06:20;13.90;;;5.90;;
9372;SDS011;10838;52.350;9.790;2023-10-13T15:08:50;12.93;;;5.70;;
9372;SDS011;10838;52.350;9.790;2023-10-13T15:11:19;9.63;;;5.80;;
9372;SDS011;10838;52.350;9.790;2023-10-13T15:13:46;20.40;;;6.27;;
9372;SDS011;10838;52.350;9.790;2023-10-13T15:16:15;17.20;;;5.83;;
9372;SDS011;10838;52.350;9.790;2023-10-13T15:18:43;14.10;;;5.90;;
9372;SDS011;10838;52.350;9.790;2023-10-13T15:21:10;10.93;;;5.57;;